Zhangzhou, China
Current Conditions -  °F | °C
As of 10:00 PM on Saturday 20 Dec 2014 (Local Time) from ZSAM Reporting Station
Clear Clear  
Wind Chill: 55°   Ceiling: Unl
Heat Index: 55°   Visibility: 6mi
Dew Point: 39°   Wind: 13mph
Humidity: 54%   Direction: 40°NE
Pressure: 30.24"   Gusts: NA
Location:  24.52°N, 117.67°E
Report Text: ZSAM 201400Z 04006MPS CAVOK 13/04 Q1024 NOSIG
Loading
Personal Weather Stations






























Interactive Weather Map New forecast layout! Learn more

10-Day Weather Forecast

Advertisements
Track Severe Weather on mobile